KMLS/MLS METAR and TAF weather

Enter ICAO airport designator
Station Type Date Time Source
KMLS METAR 2022/10/01 07:53 UTC NOAA

KMLS 010753Z AUTO 00000KT 10SM SCT075 OVC090 14/12 A3003 RMK AO2 SLP157 T01440122


Station Type Date Time Source
KMLS Decoded METAR 2022/10/01 07:53 UTC NOAA

MILES CITY WILEY FIELD, MT, United States (KMLS) 46-26N 105-53W 801M
Oct 01, 2022 - 03:53 AM EDT / 2022.10.01 0753 UTC
Wind: Calm:0
Visibility: 10 mile(s):0
Sky conditions: overcast
Temperature: 57.9 F (14.4 C)
Dew Point: 54.0 F (12.2 C)
Relative Humidity: 86%
Pressure (altimeter): 30.03 in. Hg (1016 hPa)
ob: KMLS 010753Z AUTO 00000KT 10SM SCT075 OVC090 14/12 A3003 RMK AO2 SLP157 T01440122
cycle: 8

Station Type Date Time Source
KMLS TAF 2022/10/01 06:42 UTC NOAA

TAF KMLS 010539Z 0106/0206 31008KT P6SM FEW060 OVC080
FM011200 02010KT P6SM VCSH SCT040 OVC060
FM011600 04010KT 5SM -RA BR BKN015 OVC025
FM012200 05010KT P6SM VCSH SCT015 OVC030
FM020200 05010KT P6SM SCT025 OVC040

Example: see airport list